Nashville, Iowa
Current Conditions -  °F | °C
As of 3:53 AM on Sunday 23 Nov 2014 (Local Time) from KDBQ Reporting Station
Haze Haze  
Wind Chill: 42°   Ceiling: 200
Heat Index: 48°   Visibility: 1.5mi
Dew Point: 48°   Wind: 15mph
Humidity: 100%   Direction: 180°S
Pressure: 29.64"   Gusts: NA
Location:  42.12°N, 90.7234°W
Report Text: KDBQ 230953Z AUTO 18013KT 1 1/2SM BR OVC002 09/09 A2964 RMK AO2 SLP042 T00890089 $
Loading
Personal Weather Stations






























Interactive Weather Map New forecast layout! Learn more

10-Day Weather Forecast

Advertisements
Track Severe Weather on mobile